createdAt,value
2022-12-03T00:01:56.154Z,61.72
2022-12-03T00:04:22.348Z,68.13
2022-12-03T00:06:48.475Z,64.18
2022-12-03T00:09:14.641Z,61.92
2022-12-03T00:11:40.766Z,72.53
2022-12-03T00:14:06.873Z,62.85
2022-12-03T00:16:33.018Z,66.32
2022-12-03T00:18:59.146Z,71.03
2022-12-03T00:21:25.318Z,64.90
2022-12-03T00:23:51.756Z,64.47
2022-12-03T00:26:17.860Z,59.67
2022-12-03T00:28:43.981Z,65.18
2022-12-03T01:03:08.895Z,65.38
2022-12-03T01:05:35.119Z,61.35
2022-12-03T01:08:01.254Z,61.00
2022-12-03T01:10:27.373Z,60.03
2022-12-03T01:12:53.524Z,64.18
2022-12-03T01:15:19.757Z,57.47
2022-12-03T01:17:45.883Z,62.47
2022-12-03T01:20:14.493Z,59.63
2022-12-03T01:22:40.616Z,60.22
2022-12-03T01:25:06.962Z,63.70
2022-12-03T01:27:33.138Z,62.60
2022-12-03T01:29:59.245Z,59.13
2022-12-03T01:32:25.370Z,57.03
2022-12-03T01:34:55.854Z,62.78
2022-12-03T01:37:24.370Z,60.92
2022-12-03T01:39:51.217Z,61.53
2022-12-03T01:42:22.924Z,59.70
2022-12-03T01:44:52.794Z,62.67
2022-12-03T01:47:22.596Z,58.10
2022-12-03T01:49:53.152Z,66.15
2022-12-03T01:52:23.069Z,65.45
2022-12-03T01:54:53.936Z,68.97
2022-12-03T01:57:24.874Z,59.78
2022-12-03T01:59:52.042Z,65.63
2022-12-03T02:02:28.158Z,62.10
2022-12-03T02:04:55.149Z,58.63
2022-12-03T02:07:29.368Z,66.32
2022-12-03T02:09:58.148Z,61.30
2022-12-03T02:12:30.370Z,65.18
2022-12-03T02:14:56.808Z,64.43
2022-12-03T02:17:23.142Z,67.05
2022-12-03T02:19:49.809Z,66.10
2022-12-03T02:22:33.756Z,67.72
2022-12-03T02:25:09.030Z,65.40
2022-12-03T02:27:35.197Z,62.97
2022-12-03T02:30:01.301Z,58.50
2022-12-03T02:32:27.427Z,61.65
2022-12-03T02:34:53.989Z,61.63
2022-12-03T02:37:24.793Z,67.00
2022-12-03T02:39:54.197Z,57.15
2022-12-03T02:42:36.232Z,57.53
2022-12-03T02:45:10.389Z,69.10
2022-12-03T02:47:47.376Z,60.47
2022-12-03T02:50:17.568Z,63.45
2022-12-03T02:52:46.444Z,60.40
2022-12-03T02:55:15.458Z,68.07
2022-12-03T02:57:42.259Z,64.57
2022-12-03T03:00:09.696Z,62.95
2022-12-03T03:02:37.399Z,59.42
2022-12-03T03:05:06.208Z,66.57
2022-12-03T03:07:32.956Z,64.05
2022-12-03T03:09:59.893Z,73.05
2022-12-03T03:12:26.034Z,58.65
2022-12-03T03:14:52.668Z,63.92
2022-12-03T03:17:19.118Z,62.15
2022-12-03T03:19:45.292Z,60.92
2022-12-03T03:22:12.226Z,62.55
2022-12-03T03:24:38.829Z,63.97
2022-12-03T03:27:05.347Z,67.40
2022-12-03T03:29:32.990Z,60.33
2022-12-03T03:31:59.797Z,68.72
2022-12-03T03:34:26.219Z,67.35
2022-12-03T03:36:52.612Z,68.35
2022-12-03T03:39:18.773Z,64.13
2022-12-03T03:41:46.918Z,65.88
2022-12-03T03:44:13.994Z,62.58
2022-12-03T03:46:41.235Z,64.65
2022-12-03T03:49:07.504Z,64.45
2022-12-03T03:51:35.828Z,66.03
2022-12-03T03:54:03.924Z,64.63
2022-12-03T03:56:30.546Z,64.57
2022-12-03T03:58:56.761Z,71.30
2022-12-03T04:01:23.907Z,69.80
2022-12-03T04:03:50.364Z,63.53
2022-12-03T04:06:16.520Z,67.20
2022-12-03T04:08:43.561Z,66.97
2022-12-03T04:11:28.551Z,69.03
2022-12-03T04:13:54.662Z,67.68
2022-12-03T04:16:20.850Z,66.85
2022-12-03T04:18:47.101Z,73.00
2022-12-03T04:21:37.882Z,67.47
2022-12-03T04:24:05.902Z,63.17
2022-12-03T04:26:50.396Z,68.03
2022-12-03T04:29:17.242Z,69.63
2022-12-03T04:32:02.594Z,68.97
2022-12-03T04:34:47.484Z,67.38
2022-12-03T04:37:13.831Z,67.83
2022-12-03T04:39:40.004Z,65.72
2022-12-03T04:42:06.674Z,70.90
2022-12-03T04:44:33.668Z,67.20
2022-12-03T04:47:00.823Z,63.83
2022-12-03T04:49:26.955Z,64.38
2022-12-03T04:51:53.088Z,72.30
2022-12-03T04:54:20.772Z,67.78
2022-12-03T04:56:46.908Z,74.10
2022-12-03T04:59:16.580Z,70.68
2022-12-03T05:01:43.185Z,63.83
2022-12-03T05:04:09.385Z,67.03
2022-12-03T05:06:35.991Z,73.72
2022-12-03T05:09:02.179Z,69.10
2022-12-03T05:11:28.329Z,71.13
2022-12-03T05:13:54.492Z,69.72
2022-12-03T05:16:20.683Z,79.38
2022-12-03T05:18:46.834Z,69.03
2022-12-03T05:21:12.944Z,67.45
2022-12-03T05:23:39.071Z,65.95
2022-12-03T05:26:05.204Z,76.53
2022-12-03T05:28:33.128Z,73.00
2022-12-03T05:30:59.272Z,76.25
2022-12-03T05:33:25.481Z,66.53
2022-12-03T05:35:51.588Z,75.22
2022-12-03T05:38:17.719Z,73.68
2022-12-03T05:40:44.059Z,75.32
2022-12-03T05:43:10.409Z,72.53
2022-12-03T05:45:42.164Z,68.57
2022-12-03T05:48:11.334Z,80.80
2022-12-03T05:50:39.032Z,75.85
2022-12-03T05:53:15.584Z,78.25
2022-12-03T05:55:42.188Z,80.22
2022-12-03T05:58:08.386Z,78.70
2022-12-03T06:00:42.897Z,86.07
2022-12-03T06:03:09.429Z,84.55
2022-12-03T06:05:35.778Z,77.85
2022-12-03T06:08:02.219Z,84.55
2022-12-03T06:10:28.849Z,83.68
2022-12-03T06:12:55.357Z,76.90
2022-12-03T06:15:21.980Z,79.70
2022-12-03T06:17:48.107Z,83.72
2022-12-03T06:20:18.206Z,80.03
2022-12-03T06:22:44.811Z,82.32
2022-12-03T06:25:11.369Z,80.63
2022-12-03T06:27:37.832Z,86.53
2022-12-03T06:30:08.557Z,83.97
2022-12-03T06:32:34.774Z,78.07
2022-12-03T06:35:00.891Z,87.13
2022-12-03T06:37:27.022Z,83.45
2022-12-03T06:39:53.137Z,88.28
2022-12-03T06:42:19.656Z,85.22
2022-12-03T06:44:45.801Z,90.65
2022-12-03T06:47:11.936Z,86.65
2022-12-03T06:49:38.074Z,95.00
2022-12-03T06:52:05.179Z,90.72
2022-12-03T06:54:31.355Z,90.72
2022-12-03T06:56:57.473Z,92.25
2022-12-03T06:59:23.595Z,89.72
2022-12-03T07:01:49.781Z,83.55
2022-12-03T07:04:15.932Z,86.18
2022-12-03T07:06:42.076Z,87.00
2022-12-03T07:09:08.194Z,93.32
2022-12-03T07:11:40.521Z,93.03
2022-12-03T07:14:08.424Z,102.28
2022-12-03T07:16:38.190Z,88.57
2022-12-03T07:19:05.701Z,89.65
2022-12-03T07:21:32.400Z,100.00
2022-12-03T07:23:58.522Z,92.03
2022-12-03T07:26:24.680Z,93.10
2022-12-03T07:28:50.822Z,94.97
2022-12-03T07:31:16.996Z,96.43
2022-12-03T07:33:43.229Z,91.90
2022-12-03T07:36:10.468Z,95.43
2022-12-03T07:38:36.905Z,94.25
2022-12-03T07:41:03.022Z,86.20
2022-12-03T07:43:29.153Z,90.65
2022-12-03T07:45:55.367Z,89.63
2022-12-03T07:48:21.501Z,93.95
2022-12-03T07:50:47.630Z,94.63
2022-12-03T07:53:14.842Z,94.68
2022-12-03T07:55:40.985Z,93.95
2022-12-03T07:58:07.296Z,91.22
2022-12-03T08:00:33.515Z,95.07
2022-12-03T08:02:59.714Z,83.10
2022-12-03T08:05:26.853Z,87.18
2022-12-03T08:07:53.039Z,91.88
2022-12-03T08:10:19.408Z,93.95
2022-12-03T08:12:45.560Z,98.60
2022-12-03T08:15:13.642Z,87.82
2022-12-03T08:17:40.712Z,97.97
2022-12-03T08:20:24.130Z,96.78
2022-12-03T08:22:52.665Z,103.25
2022-12-03T08:25:27.795Z,96.28
2022-12-03T08:28:16.198Z,92.05
2022-12-03T08:30:44.092Z,84.28
2022-12-03T08:33:35.303Z,103.78
2022-12-03T08:36:12.604Z,90.20
2022-12-03T08:38:40.563Z,93.47
2022-12-03T08:41:15.021Z,94.78
2022-12-03T08:43:43.840Z,104.73
2022-12-03T08:46:18.908Z,92.03
2022-12-03T08:48:49.072Z,95.15
2022-12-03T08:51:25.457Z,98.93
2022-12-03T08:54:01.588Z,88.25
2022-12-03T08:56:30.252Z,91.22
2022-12-03T08:59:26.106Z,88.65
2022-12-03T09:01:53.831Z,94.72
2022-12-03T09:04:47.499Z,91.40
2022-12-03T09:07:13.646Z,96.80
2022-12-03T09:09:40.288Z,99.80
2022-12-03T09:12:06.609Z,94.57
2022-12-03T09:14:32.755Z,93.15
2022-12-03T09:17:01.389Z,80.97
2022-12-03T09:19:31.028Z,78.90
2022-12-03T09:21:57.261Z,74.25
2022-12-03T09:24:23.523Z,80.75
2022-12-03T09:26:50.190Z,77.47
2022-12-03T09:29:16.317Z,83.63
2022-12-03T09:31:42.542Z,80.55
2022-12-03T09:34:10.080Z,80.80
2022-12-03T09:36:36.212Z,77.43
2022-12-03T09:39:02.342Z,75.65
2022-12-03T09:41:28.748Z,82.45
2022-12-03T09:44:17.180Z,80.82
2022-12-03T09:46:42.326Z,83.03
2022-12-03T09:49:16.069Z,74.85
2022-12-03T09:51:43.394Z,88.38
2022-12-03T09:54:25.644Z,81.03
2022-12-03T09:56:53.416Z,81.72
2022-12-03T09:59:20.697Z,74.90
2022-12-03T10:01:47.110Z,80.18
2022-12-03T10:04:13.451Z,92.55
2022-12-03T10:06:45.494Z,89.13
2022-12-03T10:09:14.736Z,77.47
2022-12-03T10:11:40.884Z,87.25
2022-12-03T10:14:06.991Z,92.00
2022-12-03T10:16:34.247Z,83.20
2022-12-03T10:19:01.130Z,95.28
2022-12-03T10:21:35.014Z,88.75
2022-12-03T10:24:30.088Z,86.07
2022-12-03T10:27:19.082Z,84.95
2022-12-03T10:29:55.748Z,87.20
2022-12-03T10:32:43.227Z,80.28
2022-12-03T10:35:15.415Z,80.22
2022-12-03T10:37:58.820Z,80.30
2022-12-03T10:40:30.784Z,84.35
2022-12-03T10:43:24.477Z,75.82
2022-12-03T10:46:01.981Z,78.00
2022-12-03T10:48:29.921Z,75.38
2022-12-03T10:51:04.164Z,82.35
2022-12-03T10:53:33.038Z,79.82
2022-12-03T10:56:02.017Z,86.47
2022-12-03T10:58:37.237Z,82.40
2022-12-03T11:01:14.931Z,80.85
2022-12-03T11:03:41.152Z,82.78
2022-12-03T11:06:14.221Z,79.57
2022-12-03T11:08:43.569Z,83.60
2022-12-03T11:11:26.104Z,82.50
2022-12-03T11:14:03.683Z,75.57
2022-12-03T11:16:41.830Z,72.90
2022-12-03T11:19:18.835Z,79.72
2022-12-03T11:22:03.461Z,79.32
2022-12-03T11:24:29.914Z,73.78
2022-12-03T11:26:55.994Z,74.80
2022-12-03T11:29:51.427Z,82.65
2022-12-03T11:32:55.121Z,79.90
2022-12-03T11:35:24.176Z,81.10
2022-12-03T11:37:50.413Z,72.70
2022-12-03T11:40:16.493Z,75.32
2022-12-03T11:42:43.332Z,83.45
2022-12-03T11:45:09.383Z,74.63
2022-12-03T11:47:43.870Z,71.45
2022-12-03T11:50:22.126Z,79.73
2022-12-03T11:52:53.509Z,73.70
2022-12-03T11:55:30.147Z,79.70
2022-12-03T11:58:05.909Z,75.95
2022-12-03T12:00:32.319Z,79.78
2022-12-03T12:02:59.257Z,77.65
2022-12-03T12:05:27.286Z,77.45
2022-12-03T12:07:53.929Z,75.68
2022-12-03T12:10:39.258Z,77.40
2022-12-03T12:13:05.410Z,77.25
2022-12-03T12:15:41.720Z,75.80
2022-12-03T12:18:41.022Z,75.07
2022-12-03T12:21:41.002Z,80.53
2022-12-03T12:24:32.834Z,74.18
2022-12-03T12:27:26.677Z,80.68
2022-12-03T12:29:55.765Z,75.63
2022-12-03T12:32:28.115Z,83.90
2022-12-03T12:34:59.320Z,78.47
2022-12-03T12:37:47.304Z,70.75
2022-12-03T12:40:16.529Z,78.15
2022-12-03T12:42:52.497Z,74.65
2022-12-03T12:45:22.924Z,73.85
2022-12-03T12:48:10.292Z,69.50
2022-12-03T12:50:41.461Z,73.80
2022-12-03T12:53:10.675Z,67.43
2022-12-03T12:55:38.252Z,74.28
2022-12-03T12:58:12.062Z,76.78
2022-12-03T13:00:38.217Z,78.28
2022-12-03T13:03:05.799Z,70.75
2022-12-03T13:05:44.685Z,68.43
2022-12-03T13:08:22.260Z,73.90
2022-12-03T13:10:49.118Z,76.45
2022-12-03T13:13:17.508Z,73.53
2022-12-03T13:16:03.896Z,78.55
2022-12-03T13:18:34.511Z,70.95
2022-12-03T13:21:13.311Z,74.32
2022-12-03T13:23:40.512Z,76.93
2022-12-03T13:26:32.781Z,70.53
2022-12-03T13:29:11.603Z,64.68
2022-12-03T13:31:43.544Z,71.28
2022-12-03T13:34:16.578Z,69.00
2022-12-03T13:36:44.336Z,77.78
2022-12-03T13:39:21.402Z,78.13
2022-12-03T13:42:08.192Z,73.53
2022-12-03T13:44:36.527Z,71.32
2022-12-03T13:47:13.620Z,66.80
2022-12-03T13:49:39.759Z,68.03
2022-12-03T13:52:12.883Z,69.20
2022-12-03T13:54:39.833Z,67.55
2022-12-03T13:57:06.613Z,67.60
2022-12-03T13:59:32.861Z,66.18
2022-12-03T14:01:59.021Z,66.05
2022-12-03T14:04:25.178Z,71.15
2022-12-03T14:06:51.324Z,73.45
2022-12-03T14:09:17.476Z,63.40
2022-12-03T14:12:02.070Z,62.45
2022-12-03T14:14:28.192Z,62.85
2022-12-03T14:16:59.648Z,67.82
2022-12-03T14:19:26.285Z,64.30
2022-12-03T14:21:52.637Z,68.97
2022-12-03T14:24:18.756Z,62.67
2022-12-03T14:26:45.181Z,61.15
2022-12-03T14:29:11.309Z,64.68
2022-12-03T14:31:37.477Z,63.33
2022-12-03T14:34:03.630Z,66.97
2022-12-03T14:36:29.785Z,69.35
2022-12-03T14:38:55.921Z,64.25
2022-12-03T14:41:40.516Z,63.10
2022-12-03T14:44:06.697Z,66.63
2022-12-03T14:46:32.810Z,67.35
2022-12-03T14:48:59.073Z,59.10
2022-12-03T14:51:25.264Z,73.25
2022-12-03T14:53:51.390Z,68.57
2022-12-03T14:56:18.146Z,70.65
2022-12-03T14:58:44.295Z,57.92
2022-12-03T15:01:10.557Z,64.78
2022-12-03T15:03:36.736Z,63.42
2022-12-03T15:06:02.877Z,62.17
2022-12-03T15:08:29.040Z,64.60
2022-12-03T15:10:55.315Z,69.88
2022-12-03T15:13:21.521Z,59.80
2022-12-03T15:15:47.730Z,65.38
2022-12-03T15:18:13.866Z,58.40
2022-12-03T15:20:40.006Z,59.95
2022-12-03T15:23:08.832Z,64.57
2022-12-03T15:25:38.952Z,65.22
2022-12-03T15:28:05.589Z,65.38
2022-12-03T15:30:32.260Z,57.88
2022-12-03T15:32:58.387Z,64.68
2022-12-03T15:35:24.511Z,63.33
2022-12-03T15:37:50.667Z,66.70
2022-12-03T15:40:16.794Z,65.50
2022-12-03T15:42:42.928Z,64.13
2022-12-03T15:45:13.621Z,66.45
2022-12-03T15:47:41.412Z,61.30
2022-12-03T15:50:08.166Z,71.88
2022-12-03T15:52:34.457Z,71.70
2022-12-03T15:55:00.794Z,60.78
2022-12-03T15:57:26.917Z,66.95
2022-12-03T15:59:55.299Z,63.60
2022-12-03T16:02:21.692Z,63.85
2022-12-03T16:04:47.878Z,69.65
2022-12-03T16:07:14.033Z,63.95
2022-12-03T16:09:40.196Z,62.55
2022-12-03T16:12:06.432Z,70.63
2022-12-03T16:14:32.673Z,67.82
2022-12-03T16:17:00.129Z,63.67
2022-12-03T16:19:26.374Z,68.07
2022-12-03T16:21:52.524Z,65.15
2022-12-03T16:24:18.653Z,71.70
2022-12-03T16:26:44.761Z,68.15
2022-12-03T16:29:12.182Z,67.63
2022-12-03T16:31:38.385Z,67.95
2022-12-03T16:34:04.650Z,73.32
2022-12-03T16:36:30.786Z,70.35
2022-12-03T16:38:58.109Z,66.50
2022-12-03T16:41:24.229Z,67.20
2022-12-03T16:43:50.452Z,70.88
2022-12-03T16:46:26.262Z,76.72
2022-12-03T16:48:55.578Z,75.40
2022-12-03T16:51:26.441Z,71.55
2022-12-03T16:53:52.605Z,74.07
2022-12-03T16:56:18.748Z,69.07
2022-12-03T16:58:44.976Z,73.30
2022-12-03T17:01:11.532Z,72.80
2022-12-03T17:03:37.707Z,74.30
2022-12-03T17:06:05.089Z,80.32
2022-12-03T17:08:31.470Z,72.05
2022-12-03T17:10:57.813Z,73.45
2022-12-03T17:13:24.086Z,70.40
2022-12-03T17:15:51.017Z,75.63
2022-12-03T17:18:17.350Z,71.47
2022-12-03T17:20:43.499Z,68.45
2022-12-03T17:23:09.648Z,81.65
2022-12-03T17:25:35.854Z,73.30
2022-12-03T17:28:02.159Z,72.15
2022-12-03T17:30:28.284Z,79.25
2022-12-03T17:32:54.436Z,74.13
2022-12-03T17:35:20.582Z,86.25
2022-12-03T17:37:46.726Z,86.22
2022-12-03T17:40:14.459Z,79.65
2022-12-03T17:42:40.625Z,83.72
2022-12-03T17:45:07.493Z,75.28
2022-12-03T17:47:33.614Z,81.18
2022-12-03T17:49:59.815Z,76.50
2022-12-03T17:52:25.932Z,84.50
2022-12-03T17:57:38.169Z,76.88
2022-12-03T18:00:05.458Z,86.97
2022-12-03T18:02:38.156Z,89.60
2022-12-03T18:05:04.420Z,85.40
2022-12-03T18:07:30.583Z,85.50
2022-12-03T18:09:57.178Z,79.97
2022-12-03T18:12:23.590Z,85.25
2022-12-03T18:14:49.741Z,89.88
2022-12-03T18:17:15.849Z,87.00
2022-12-03T18:19:41.977Z,78.40
2022-12-03T18:22:08.162Z,88.80
2022-12-03T18:24:34.690Z,92.10
2022-12-03T18:27:01.034Z,78.38
2022-12-03T18:29:27.179Z,78.53
2022-12-03T18:31:53.425Z,88.43
2022-12-03T18:34:19.574Z,86.07
2022-12-03T18:36:45.827Z,83.78
2022-12-03T18:39:24.460Z,87.55
2022-12-03T18:41:50.567Z,80.93
2022-12-03T18:44:16.692Z,77.88
2022-12-03T18:46:53.495Z,83.25
2022-12-03T18:49:20.213Z,94.90
2022-12-03T18:51:46.354Z,92.03
2022-12-03T18:54:13.670Z,78.22
2022-12-03T18:56:41.372Z,85.28
2022-12-03T18:59:08.001Z,80.30
2022-12-03T19:01:34.520Z,75.82
2022-12-03T19:04:00.670Z,81.70
2022-12-03T19:06:29.044Z,80.05
2022-12-03T19:08:55.213Z,85.22
2022-12-03T19:11:22.042Z,84.10
2022-12-03T19:13:48.541Z,78.15
2022-12-03T19:16:17.104Z,91.22
2022-12-03T19:18:43.939Z,78.57
2022-12-03T19:21:12.997Z,85.60
2022-12-03T19:23:39.599Z,82.28
2022-12-03T19:26:08.630Z,78.75
2022-12-03T19:28:35.158Z,82.50
2022-12-03T19:31:06.623Z,83.30
2022-12-03T19:33:34.094Z,87.97
2022-12-03T19:36:01.217Z,84.40
2022-12-03T19:38:29.144Z,73.50
2022-12-03T19:41:07.157Z,86.22
2022-12-03T19:43:35.265Z,78.97
2022-12-03T19:46:11.887Z,82.22
2022-12-03T19:48:39.809Z,75.03
2022-12-03T19:51:33.076Z,80.05
2022-12-03T19:53:54.077Z,83.10
2022-12-03T19:56:20.298Z,82.30
2022-12-03T19:58:47.156Z,83.25
2022-12-03T20:01:19.226Z,79.45
2022-12-03T20:03:48.003Z,83.97
2022-12-03T20:06:15.537Z,83.05
2022-12-03T20:08:42.330Z,80.18
2022-12-03T20:11:17.965Z,80.32
2022-12-03T20:13:44.680Z,87.20
2022-12-03T20:16:13.522Z,87.13
2022-12-03T20:18:41.026Z,92.78
2022-12-03T20:21:08.740Z,81.25
2022-12-03T20:23:34.893Z,88.53
2022-12-03T20:26:01.021Z,92.68
2022-12-03T20:28:28.163Z,92.43
2022-12-03T20:31:11.020Z,82.50
2022-12-03T20:33:37.869Z,89.10
2022-12-03T20:36:04.727Z,89.07
2022-12-03T20:38:32.054Z,77.15
2022-12-03T20:41:03.234Z,86.50
2022-12-03T20:43:29.488Z,85.20
2022-12-03T20:46:01.035Z,92.03
2022-12-03T20:48:28.789Z,95.57
2022-12-03T20:50:54.970Z,93.57
2022-12-03T20:53:25.349Z,86.28
2022-12-03T20:55:56.399Z,87.55
2022-12-03T20:58:22.582Z,85.63
2022-12-03T21:00:48.777Z,87.97
2022-12-03T21:03:14.978Z,86.00
2022-12-03T21:05:42.608Z,88.72
2022-12-03T21:08:08.800Z,99.72
2022-12-03T21:10:44.761Z,92.93
2022-12-03T21:13:15.617Z,87.90
2022-12-03T21:15:43.102Z,88.13
2022-12-03T21:18:11.645Z,92.65
2022-12-03T21:20:46.271Z,94.60
2022-12-03T21:23:13.396Z,89.73
2022-12-03T21:25:40.488Z,99.72
2022-12-03T21:28:09.061Z,98.85
2022-12-03T21:30:38.524Z,104.25
2022-12-03T21:33:04.933Z,99.10
2022-12-03T21:35:31.252Z,99.55
2022-12-03T21:37:57.549Z,95.25
2022-12-03T21:40:23.976Z,97.22
2022-12-03T21:42:50.090Z,99.32
2022-12-03T21:45:16.428Z,103.53
2022-12-03T21:47:46.114Z,96.47
2022-12-03T21:50:12.342Z,107.38
2022-12-03T21:52:38.482Z,103.65
2022-12-03T21:55:05.446Z,97.88
2022-12-03T21:57:31.605Z,100.82
2022-12-03T21:59:58.049Z,101.93
2022-12-03T22:02:24.369Z,104.55
2022-12-03T22:04:51.146Z,102.05
2022-12-03T22:07:17.677Z,113.43
2022-12-03T22:09:43.852Z,99.22
2022-12-03T22:12:10.037Z,104.43
2022-12-03T22:14:36.258Z,99.03
2022-12-03T22:17:02.372Z,102.70
2022-12-03T22:19:28.572Z,110.53
2022-12-03T22:21:54.695Z,100.30
2022-12-03T22:24:20.964Z,100.85
2022-12-03T22:26:47.620Z,95.57
2022-12-03T22:29:13.756Z,105.03
2022-12-03T22:31:39.885Z,95.35
2022-12-03T22:34:06.185Z,102.47
2022-12-03T22:36:32.445Z,98.53
2022-12-03T22:38:58.582Z,104.47
2022-12-03T22:41:24.706Z,96.18
2022-12-03T22:43:50.855Z,100.57
2022-12-03T22:46:17.535Z,102.15
2022-12-03T22:48:45.579Z,105.35
2022-12-03T22:51:16.859Z,103.35
2022-12-03T22:53:43.280Z,106.20
2022-12-03T22:56:09.489Z,114.05
2022-12-03T22:58:37.887Z,114.55
2022-12-03T23:01:04.647Z,100.57
2022-12-03T23:03:30.916Z,105.68
2022-12-03T23:05:57.157Z,109.00
2022-12-03T23:08:23.346Z,111.95
2022-12-03T23:10:52.296Z,107.60
2022-12-03T23:13:19.234Z,109.75
2022-12-03T23:15:47.037Z,110.97
2022-12-03T23:18:13.693Z,119.00
2022-12-03T23:20:45.719Z,113.55
2022-12-03T23:23:12.762Z,108.20
2022-12-03T23:25:38.928Z,114.75
2022-12-03T23:28:05.773Z,115.53
2022-12-03T23:30:38.700Z,111.78
2022-12-03T23:33:06.338Z,109.60
2022-12-03T23:35:32.844Z,125.13
2022-12-03T23:37:59.060Z,113.45
2022-12-03T23:40:25.184Z,117.00
2022-12-03T23:42:51.296Z,111.40
2022-12-03T23:45:17.520Z,131.80
2022-12-03T23:47:43.647Z,111.60
2022-12-03T23:50:11.174Z,112.97
2022-12-03T23:52:37.398Z,118.97
2022-12-03T23:55:04.225Z,113.95
2022-12-03T23:57:30.370Z,119.55
2022-12-03T23:59:56.870Z,116.75
